createdAt,value
2019-05-17T00:00:07.862Z,22.43
2019-05-17T00:02:37.396Z,22.17
2019-05-17T00:05:07.955Z,21.73
2019-05-17T00:07:36.884Z,22.73
2019-05-17T00:10:07.264Z,23.73
2019-05-17T00:12:36.784Z,23.43
2019-05-17T00:15:07.197Z,23.00
2019-05-17T00:17:37.699Z,23.33
2019-05-17T00:20:09.544Z,23.60
2019-05-17T00:22:38.211Z,24.10
2019-05-17T00:25:07.514Z,24.50
2019-05-17T00:27:36.907Z,25.63
2019-05-17T00:30:12.995Z,25.77
2019-05-17T00:32:41.612Z,25.30
2019-05-17T00:35:10.038Z,24.20
2019-05-17T00:37:38.417Z,23.83
2019-05-17T00:40:10.780Z,25.03
2019-05-17T00:42:39.465Z,23.93
2019-05-17T00:45:08.726Z,25.13
2019-05-17T00:47:40.026Z,24.53
2019-05-17T00:50:09.238Z,22.80
2019-05-17T00:52:37.624Z,24.40
2019-05-17T00:55:07.680Z,24.80
2019-05-17T00:57:36.855Z,24.37
2019-05-17T01:00:08.543Z,25.37
2019-05-17T01:02:37.279Z,24.43
2019-05-17T01:05:07.398Z,25.07
2019-05-17T01:07:37.756Z,25.27
2019-05-17T01:10:08.149Z,25.27
2019-05-17T01:12:36.809Z,25.03
2019-05-17T01:15:10.200Z,24.90
2019-05-17T01:17:38.925Z,26.17
2019-05-17T01:20:09.705Z,24.97
2019-05-17T01:22:38.158Z,24.57
2019-05-17T01:25:08.158Z,25.80
2019-05-17T01:27:38.196Z,25.10
2019-05-17T01:30:07.959Z,26.60
2019-05-17T01:32:37.413Z,25.33
2019-05-17T01:35:07.437Z,26.47
2019-05-17T01:37:36.915Z,25.37
2019-05-17T01:40:07.085Z,24.53
2019-05-17T01:42:37.372Z,24.90
2019-05-17T01:45:08.746Z,25.67
2019-05-17T01:47:37.215Z,25.93
2019-05-17T01:50:08.282Z,26.37
2019-05-17T01:52:37.123Z,24.90
2019-05-17T01:55:08.223Z,25.93
2019-05-17T01:57:37.166Z,24.00
2019-05-17T02:00:12.712Z,24.20
2019-05-17T02:02:47.126Z,23.07
2019-05-17T02:05:17.259Z,24.73
2019-05-17T02:07:46.544Z,23.37
2019-05-17T02:10:16.920Z,24.03
2019-05-17T02:12:48.658Z,23.80
2019-05-17T02:15:16.549Z,23.63
2019-05-17T02:17:46.873Z,21.93
2019-05-17T02:20:17.113Z,23.90
2019-05-17T02:22:47.318Z,21.70
2019-05-17T02:25:17.768Z,21.80
2019-05-17T02:27:46.411Z,21.23
2019-05-17T02:30:15.750Z,20.90
2019-05-17T02:32:45.528Z,20.80
2019-05-17T02:35:15.110Z,19.47
2019-05-17T02:37:44.155Z,20.53
2019-05-17T02:40:14.836Z,20.90
2019-05-17T02:42:43.727Z,21.80
2019-05-17T02:45:13.552Z,21.40
2019-05-17T02:47:43.601Z,19.70
2019-05-17T02:50:13.247Z,20.33
2019-05-17T02:52:43.560Z,20.13
2019-05-17T02:55:13.364Z,20.50
2019-05-17T02:57:43.232Z,20.30
2019-05-17T03:00:14.233Z,21.60
2019-05-17T03:02:43.783Z,20.33
2019-05-17T03:05:14.387Z,20.30
2019-05-17T03:07:44.001Z,19.70
2019-05-17T03:10:23.008Z,19.57
2019-05-17T03:12:44.350Z,18.80
2019-05-17T03:15:13.538Z,18.53
2019-05-17T03:17:43.441Z,19.57
2019-05-17T03:20:13.778Z,19.53
2019-05-17T03:22:44.021Z,19.07
2019-05-17T03:25:14.016Z,18.20
2019-05-17T03:27:43.268Z,18.53
2019-05-17T03:30:17.039Z,17.83
2019-05-17T03:32:47.656Z,18.70
2019-05-17T03:35:17.436Z,18.83
2019-05-17T03:37:45.033Z,18.80
2019-05-17T03:40:30.686Z,18.63
2019-05-17T03:42:44.016Z,17.57
2019-05-17T03:45:14.188Z,18.13
2019-05-17T03:47:44.407Z,16.60
2019-05-17T03:50:14.104Z,16.17
2019-05-17T03:52:44.420Z,15.80
2019-05-17T03:55:13.695Z,17.07
2019-05-17T03:57:44.222Z,17.33
2019-05-17T04:00:13.591Z,16.20
2019-05-17T04:02:44.378Z,15.17
2019-05-17T04:05:13.045Z,17.10
2019-05-17T04:07:43.380Z,15.80
2019-05-17T04:10:15.045Z,16.17
2019-05-17T04:12:44.399Z,15.93
2019-05-17T04:15:14.155Z,16.50
2019-05-17T04:17:44.109Z,16.07
2019-05-17T04:20:13.937Z,17.13
2019-05-17T04:22:44.076Z,16.33
2019-05-17T04:25:13.629Z,16.33
2019-05-17T04:27:43.980Z,17.77
2019-05-17T04:30:14.489Z,16.23
2019-05-17T04:32:44.143Z,17.33
2019-05-17T04:35:13.833Z,16.57
2019-05-17T04:37:44.698Z,16.43
2019-05-17T04:40:14.494Z,16.47
2019-05-17T04:42:44.232Z,15.63
2019-05-17T04:45:13.755Z,15.30
2019-05-17T04:47:44.409Z,16.47
2019-05-17T04:50:13.867Z,15.67
2019-05-17T04:52:43.236Z,17.57
2019-05-17T04:55:13.849Z,15.27
2019-05-17T04:57:43.735Z,15.87
2019-05-17T05:00:13.468Z,15.77
2019-05-17T05:02:43.747Z,17.10
2019-05-17T05:05:14.541Z,17.70
2019-05-17T05:07:43.950Z,16.30
2019-05-17T05:10:13.641Z,15.87
2019-05-17T05:12:43.519Z,15.97
2019-05-17T05:15:13.220Z,15.03
2019-05-17T05:17:42.600Z,14.43
2019-05-17T05:20:13.169Z,14.20
2019-05-17T05:22:42.629Z,14.10
2019-05-17T05:25:12.457Z,15.47
2019-05-17T05:27:42.617Z,15.17
2019-05-17T05:30:12.446Z,14.97
2019-05-17T05:32:42.795Z,13.67
2019-05-17T05:35:12.360Z,14.90
2019-05-17T05:37:42.384Z,14.87
2019-05-17T05:40:12.745Z,15.37
2019-05-17T05:42:42.716Z,16.03
2019-05-17T05:45:12.213Z,13.63
2019-05-17T05:47:41.733Z,15.30
2019-05-17T05:50:12.534Z,14.83
2019-05-17T05:52:42.309Z,14.83
2019-05-17T05:55:12.273Z,14.47
2019-05-17T05:57:42.038Z,13.47
2019-05-17T06:00:13.333Z,14.10
2019-05-17T06:02:42.205Z,14.77
2019-05-17T06:05:14.761Z,14.57
2019-05-17T06:07:42.218Z,15.00
2019-05-17T06:10:13.370Z,14.70
2019-05-17T06:12:43.422Z,15.67
2019-05-17T06:15:13.757Z,15.13
2019-05-17T06:17:42.998Z,15.23
2019-05-17T06:20:12.364Z,14.70
2019-05-17T06:22:42.915Z,15.80
2019-05-17T06:25:15.177Z,15.00
2019-05-17T06:27:41.792Z,16.10
2019-05-17T06:30:12.626Z,14.97
2019-05-17T06:32:43.246Z,15.13
2019-05-17T06:35:12.614Z,15.57
2019-05-17T06:37:42.271Z,16.60
2019-05-17T06:40:12.990Z,16.67
2019-05-17T06:42:45.137Z,15.70
2019-05-17T06:45:12.847Z,16.60
2019-05-17T06:47:42.559Z,16.20
2019-05-17T06:50:14.345Z,16.83
2019-05-17T06:52:43.376Z,16.37
2019-05-17T06:55:13.195Z,17.20
2019-05-17T06:57:43.298Z,16.13
2019-05-17T07:00:19.470Z,16.40
2019-05-17T07:02:43.106Z,18.63
2019-05-17T07:05:13.568Z,17.03
2019-05-17T07:07:41.970Z,17.00
2019-05-17T07:10:12.664Z,16.40
2019-05-17T07:12:55.053Z,17.23
2019-05-17T07:15:11.362Z,16.20
2019-05-17T07:17:40.147Z,16.00
2019-05-17T07:20:10.312Z,15.40
2019-05-17T07:22:40.887Z,15.77
2019-05-17T07:25:10.802Z,19.00
2019-05-17T07:27:45.425Z,15.90
2019-05-17T07:30:10.484Z,16.80
2019-05-17T07:32:40.546Z,15.97
2019-05-17T07:35:11.004Z,16.33
2019-05-17T07:37:40.071Z,16.30
2019-05-17T07:40:10.713Z,16.00
2019-05-17T07:42:39.976Z,16.30
2019-05-17T07:45:10.053Z,16.40
2019-05-17T07:47:40.365Z,15.90
2019-05-17T07:50:11.255Z,15.93
2019-05-17T07:52:40.180Z,15.63
2019-05-17T07:55:13.346Z,16.00
2019-05-17T07:57:41.798Z,15.30
2019-05-17T08:00:11.380Z,15.23
2019-05-17T08:02:40.414Z,15.70
2019-05-17T08:05:10.588Z,16.43
2019-05-17T08:07:40.707Z,16.57
2019-05-17T08:10:11.091Z,15.77
2019-05-17T08:12:40.555Z,16.20
2019-05-17T08:15:10.712Z,17.40
2019-05-17T08:17:39.956Z,15.47
2019-05-17T08:20:10.257Z,14.90
2019-05-17T08:22:39.813Z,15.33
2019-05-17T08:25:10.151Z,15.20
2019-05-17T08:27:40.478Z,14.87
2019-05-17T08:30:10.582Z,15.93
2019-05-17T08:32:40.211Z,12.93
2019-05-17T08:35:11.253Z,13.90
2019-05-17T08:37:42.348Z,14.00
2019-05-17T08:40:14.889Z,14.27
2019-05-17T08:42:41.459Z,14.00
2019-05-17T08:45:10.500Z,13.70
2019-05-17T08:47:39.611Z,14.80
2019-05-17T08:50:11.393Z,13.20
2019-05-17T08:52:40.297Z,13.57
2019-05-17T08:55:09.859Z,13.30
2019-05-17T08:57:40.044Z,12.60
2019-05-17T09:00:10.536Z,12.40
2019-05-17T09:02:40.983Z,12.13
2019-05-17T09:05:10.253Z,11.93
2019-05-17T09:07:40.127Z,11.57
2019-05-17T09:10:10.208Z,11.50
2019-05-17T09:12:40.870Z,11.00
2019-05-17T09:15:10.062Z,11.10
2019-05-17T09:17:39.721Z,9.80
2019-05-17T09:20:10.652Z,9.80
2019-05-17T09:22:39.817Z,12.63
2019-05-17T09:25:13.506Z,10.90
2019-05-17T09:27:39.887Z,10.10
2019-05-17T09:30:09.643Z,9.97
2019-05-17T09:32:40.427Z,9.10
2019-05-17T09:35:10.165Z,9.03
2019-05-17T09:37:41.517Z,9.57
2019-05-17T09:40:10.018Z,9.50
2019-05-17T09:42:41.204Z,9.50
2019-05-17T09:45:09.867Z,8.90
2019-05-17T09:47:39.653Z,8.97
2019-05-17T09:50:09.902Z,8.03
2019-05-17T09:52:40.726Z,8.40
2019-05-17T09:55:09.925Z,8.50
2019-05-17T09:57:40.776Z,8.10
2019-05-17T10:00:10.835Z,7.80
2019-05-17T10:02:40.323Z,8.40
2019-05-17T10:05:10.632Z,9.50
2019-05-17T10:07:40.230Z,7.90
2019-05-17T10:10:10.381Z,7.80
2019-05-17T10:12:40.440Z,7.87
2019-05-17T10:15:10.001Z,8.07
2019-05-17T10:17:38.665Z,7.83
2019-05-17T10:20:07.832Z,7.70
2019-05-17T10:22:36.885Z,7.00
2019-05-17T10:25:06.707Z,7.40
2019-05-17T10:27:35.353Z,7.10
2019-05-17T10:30:05.882Z,7.10
2019-05-17T10:32:34.272Z,7.27
2019-05-17T10:35:02.731Z,7.17
2019-05-17T10:37:31.115Z,7.03
2019-05-17T10:39:59.511Z,7.30
2019-05-17T10:42:30.405Z,8.23
2019-05-17T10:44:59.955Z,7.50
2019-05-17T10:47:30.085Z,7.00
2019-05-17T10:49:58.727Z,7.30
2019-05-17T10:52:29.735Z,7.77
2019-05-17T10:54:59.642Z,7.33
2019-05-17T10:57:30.097Z,7.60
2019-05-17T10:59:59.282Z,7.30
2019-05-17T11:02:30.209Z,7.70
2019-05-17T11:05:00.813Z,7.00
2019-05-17T11:07:28.446Z,7.63
2019-05-17T11:09:56.852Z,7.50
2019-05-17T11:12:25.252Z,7.57
2019-05-17T11:15:09.733Z,7.30
2019-05-17T11:17:23.839Z,8.20
2019-05-17T11:19:52.464Z,9.20
2019-05-17T11:22:21.359Z,9.67
2019-05-17T11:24:49.929Z,8.87
2019-05-17T11:27:18.555Z,8.83
2019-05-17T11:29:46.937Z,8.30
2019-05-17T11:32:15.437Z,8.03
2019-05-17T11:34:43.777Z,7.67
2019-05-17T11:37:12.248Z,8.73
2019-05-17T11:39:41.015Z,8.33
2019-05-17T11:42:09.698Z,8.53
2019-05-17T11:44:38.386Z,8.60
2019-05-17T11:47:07.094Z,8.67
2019-05-17T11:49:35.725Z,8.47
2019-05-17T11:52:04.189Z,9.60
2019-05-17T11:54:32.593Z,8.57
2019-05-17T11:57:01.222Z,10.13
2019-05-17T11:59:29.860Z,10.13
2019-05-17T12:01:58.260Z,10.17
2019-05-17T12:04:26.890Z,10.83
2019-05-17T12:06:55.369Z,10.60
2019-05-17T12:09:36.488Z,10.53
2019-05-17T12:11:53.926Z,10.30
2019-05-17T12:14:22.337Z,10.60
2019-05-17T12:16:50.963Z,9.70
2019-05-17T12:19:19.585Z,9.80
2019-05-17T12:21:47.983Z,9.00
2019-05-17T12:24:16.370Z,11.10
2019-05-17T12:26:47.425Z,10.07
2019-05-17T12:29:15.131Z,10.47
2019-05-17T12:31:43.531Z,11.10
2019-05-17T12:34:11.937Z,10.70
2019-05-17T12:36:43.708Z,10.10
2019-05-17T12:39:12.258Z,11.40
2019-05-17T12:41:40.714Z,10.97
2019-05-17T12:44:09.415Z,11.17
2019-05-17T12:46:37.814Z,12.50
2019-05-17T12:49:06.222Z,11.90
2019-05-17T12:51:34.629Z,11.93
2019-05-17T12:54:03.020Z,12.17
2019-05-17T12:56:31.420Z,12.03
2019-05-17T12:58:59.831Z,11.60
2019-05-17T13:01:28.524Z,11.20
2019-05-17T13:03:56.927Z,11.07
2019-05-17T13:06:25.342Z,11.57
2019-05-17T13:08:53.782Z,10.33
2019-05-17T13:11:22.260Z,11.83
2019-05-17T13:13:50.669Z,13.07
2019-05-17T13:16:19.496Z,12.73
2019-05-17T13:18:47.918Z,11.27
2019-05-17T13:21:16.502Z,10.67
2019-05-17T13:23:45.010Z,11.47
2019-05-17T13:26:13.547Z,11.70
2019-05-17T13:28:42.010Z,12.00
2019-05-17T13:31:10.521Z,12.33
2019-05-17T13:33:39.337Z,11.67
2019-05-17T13:36:07.914Z,11.20
2019-05-17T13:38:36.315Z,10.60
2019-05-17T13:41:04.931Z,11.67
2019-05-17T13:43:33.346Z,12.53
2019-05-17T13:46:01.752Z,13.50
2019-05-17T13:48:30.284Z,12.13
2019-05-17T13:50:58.807Z,12.33
2019-05-17T13:53:27.476Z,12.00
2019-05-17T13:55:56.046Z,11.83
2019-05-17T13:58:24.448Z,12.10
2019-05-17T14:00:52.944Z,10.57
2019-05-17T14:03:21.383Z,10.40
2019-05-17T14:05:52.479Z,12.73
2019-05-17T14:08:21.013Z,11.90
2019-05-17T14:10:49.637Z,11.23
2019-05-17T14:13:18.032Z,11.43
2019-05-17T14:15:46.885Z,9.70
2019-05-17T14:18:15.562Z,9.37
2019-05-17T14:20:45.397Z,10.33
2019-05-17T14:23:16.609Z,12.80
2019-05-17T14:25:45.131Z,12.50
2019-05-17T14:28:14.530Z,11.53
2019-05-17T14:30:42.999Z,13.27
2019-05-17T14:33:11.395Z,10.90
2019-05-17T14:35:39.787Z,11.47
2019-05-17T14:38:08.195Z,13.07
2019-05-17T14:41:05.084Z,11.57
2019-05-17T14:43:06.777Z,14.03
2019-05-17T14:45:35.255Z,11.77
2019-05-17T14:48:03.647Z,11.10
2019-05-17T14:50:32.097Z,11.77
2019-05-17T14:53:00.470Z,12.07
2019-05-17T14:55:28.883Z,11.50
2019-05-17T14:57:57.288Z,12.43
2019-05-17T15:00:25.943Z,10.90
2019-05-17T15:02:54.363Z,10.33
2019-05-17T15:05:22.838Z,11.03
2019-05-17T15:07:51.242Z,13.00
2019-05-17T15:10:19.717Z,10.70
2019-05-17T15:12:48.111Z,12.57
2019-05-17T15:15:27.142Z,13.10
2019-05-17T15:17:55.689Z,11.27
2019-05-17T15:20:24.097Z,12.10
2019-05-17T15:22:52.538Z,11.77
2019-05-17T15:25:20.938Z,11.80
2019-05-17T15:27:49.418Z,12.40
2019-05-17T15:30:17.954Z,11.37
2019-05-17T15:32:46.377Z,12.90
2019-05-17T15:35:16.792Z,11.97
2019-05-17T15:37:45.353Z,11.80
2019-05-17T15:40:13.813Z,12.73
2019-05-17T15:42:44.494Z,13.00
2019-05-17T15:45:12.594Z,13.27
2019-05-17T15:47:40.993Z,13.60
2019-05-17T15:50:10.941Z,11.70
2019-05-17T15:52:39.336Z,13.10
2019-05-17T15:55:08.510Z,12.43
2019-05-17T15:57:36.917Z,13.03
2019-05-17T16:00:06.780Z,11.90
2019-05-17T16:02:35.162Z,11.70
2019-05-17T16:05:04.197Z,12.67
2019-05-17T16:07:32.793Z,11.43
2019-05-17T16:10:02.964Z,11.43
2019-05-17T16:12:31.440Z,11.40
2019-05-17T16:15:05.759Z,11.70
2019-05-17T16:17:34.213Z,11.50
2019-05-17T16:20:02.768Z,11.00
2019-05-17T16:22:31.173Z,10.73
2019-05-17T16:24:59.849Z,10.63
2019-05-17T16:27:28.500Z,10.60
2019-05-17T16:29:56.906Z,10.60
2019-05-17T16:32:25.322Z,10.23
2019-05-17T16:34:53.852Z,10.63
2019-05-17T16:37:22.245Z,10.00
2019-05-17T16:39:50.764Z,11.60
2019-05-17T16:42:19.255Z,10.70
2019-05-17T16:44:47.630Z,9.17
2019-05-17T16:47:16.031Z,11.23
2019-05-17T16:49:44.503Z,11.10
2019-05-17T16:52:12.895Z,10.93
2019-05-17T16:54:41.539Z,11.57
2019-05-17T16:57:10.039Z,12.00
2019-05-17T16:59:38.526Z,11.40
2019-05-17T17:02:07.000Z,10.90
2019-05-17T17:04:35.855Z,12.30
2019-05-17T17:07:04.399Z,11.37
2019-05-17T17:09:32.871Z,10.27
2019-05-17T17:12:01.653Z,11.20
2019-05-17T17:14:30.341Z,12.00
2019-05-17T17:16:58.741Z,11.77
2019-05-17T17:19:27.159Z,11.03
2019-05-17T17:21:55.562Z,12.90
2019-05-17T17:24:23.965Z,11.07
2019-05-17T17:26:52.392Z,10.57
2019-05-17T17:29:20.785Z,10.77
2019-05-17T17:31:49.285Z,11.00
2019-05-17T17:34:17.733Z,10.37
2019-05-17T17:36:46.630Z,10.07
2019-05-17T17:39:15.015Z,11.10
2019-05-17T17:41:43.435Z,10.00
2019-05-17T17:44:11.886Z,9.90
2019-05-17T17:46:40.296Z,10.07
2019-05-17T17:49:08.675Z,9.83
2019-05-17T17:51:37.095Z,10.80
2019-05-17T17:54:05.566Z,10.40
2019-05-17T17:56:33.980Z,10.37
2019-05-17T17:59:02.633Z,10.13
2019-05-17T18:01:33.218Z,10.10
2019-05-17T18:04:01.596Z,9.27
2019-05-17T18:06:30.023Z,8.80
2019-05-17T18:08:58.404Z,9.80
2019-05-17T18:11:26.790Z,8.43
2019-05-17T18:13:55.356Z,9.77
2019-05-17T18:16:24.020Z,8.87
2019-05-17T18:18:52.491Z,10.10
2019-05-17T18:21:20.982Z,9.73
2019-05-17T18:23:49.335Z,9.33
2019-05-17T18:26:18.335Z,8.93
2019-05-17T18:28:46.683Z,9.87
2019-05-17T18:31:15.380Z,11.17
2019-05-17T18:33:43.758Z,10.80
2019-05-17T18:36:12.141Z,10.17
2019-05-17T18:38:40.742Z,10.83
2019-05-17T18:41:09.153Z,11.30
2019-05-17T18:43:37.625Z,11.23
2019-05-17T18:46:06.019Z,10.70
2019-05-17T18:48:34.439Z,10.80
2019-05-17T18:51:02.893Z,9.50
2019-05-17T18:53:31.601Z,10.73
2019-05-17T18:56:00.025Z,10.13
2019-05-17T18:58:28.440Z,10.23
2019-05-17T19:00:56.818Z,10.33
2019-05-17T19:03:25.201Z,11.03
2019-05-17T19:05:53.619Z,10.87
2019-05-17T19:08:22.003Z,10.27
2019-05-17T19:10:50.696Z,10.70
2019-05-17T19:13:19.149Z,11.80
2019-05-17T19:15:49.414Z,12.70
2019-05-17T19:18:17.815Z,12.00
2019-05-17T19:20:46.599Z,11.23
2019-05-17T19:23:15.002Z,12.27
2019-05-17T19:25:43.487Z,12.00
2019-05-17T19:28:11.889Z,12.13
2019-05-17T19:30:40.290Z,12.63
2019-05-17T19:33:09.066Z,11.20
2019-05-17T19:35:37.804Z,11.23
2019-05-17T19:38:06.294Z,11.80
2019-05-17T19:40:34.686Z,11.37
2019-05-17T19:43:03.167Z,11.30
2019-05-17T19:45:31.841Z,11.03
2019-05-17T19:48:00.234Z,12.60
2019-05-17T19:50:28.703Z,11.80
2019-05-17T19:52:57.372Z,12.07
2019-05-17T19:55:25.831Z,11.80
2019-05-17T19:57:54.577Z,11.93
2019-05-17T20:00:23.413Z,13.33
2019-05-17T20:02:51.846Z,13.53
2019-05-17T20:05:20.240Z,12.60
2019-05-17T20:07:48.626Z,13.60
2019-05-17T20:10:17.873Z,12.47
2019-05-17T20:12:46.278Z,13.90
2019-05-17T20:15:18.358Z,13.47
2019-05-17T20:17:47.068Z,13.23
2019-05-17T20:20:16.441Z,13.37
2019-05-17T20:22:44.840Z,12.63
2019-05-17T20:25:13.581Z,13.07
2019-05-17T20:27:41.978Z,13.20
2019-05-17T20:30:15.858Z,13.13
2019-05-17T20:32:44.252Z,14.20
2019-05-17T20:35:12.990Z,12.37
2019-05-17T20:37:41.717Z,13.90
2019-05-17T20:40:10.455Z,13.33
2019-05-17T20:42:39.014Z,12.83
2019-05-17T20:45:09.296Z,14.20
2019-05-17T20:47:37.708Z,13.27
2019-05-17T20:50:10.332Z,13.20
2019-05-17T20:52:39.061Z,14.50
2019-05-17T20:55:08.209Z,13.57
2019-05-17T20:57:36.852Z,14.10
2019-05-17T21:00:09.125Z,13.50
2019-05-17T21:02:37.527Z,13.80
2019-05-17T21:05:07.826Z,14.00
2019-05-17T21:07:36.229Z,13.00
2019-05-17T21:10:05.984Z,13.47
2019-05-17T21:12:34.375Z,13.00
2019-05-17T21:15:02.962Z,13.90
2019-05-17T21:17:32.301Z,13.67
2019-05-17T21:20:00.691Z,15.10
2019-05-17T21:22:29.099Z,13.77
2019-05-17T21:25:01.955Z,13.73
2019-05-17T21:27:30.580Z,13.83
2019-05-17T21:29:59.051Z,13.90
2019-05-17T21:32:27.461Z,13.63
2019-05-17T21:34:55.884Z,14.10
2019-05-17T21:37:24.276Z,13.80
2019-05-17T21:39:52.722Z,14.70
2019-05-17T21:42:21.214Z,14.37
2019-05-17T21:44:52.677Z,14.30
2019-05-17T21:47:23.027Z,14.10
2019-05-17T21:49:51.808Z,14.47
2019-05-17T21:52:20.182Z,14.43
2019-05-17T21:54:48.637Z,15.00
2019-05-17T21:57:17.312Z,15.20
2019-05-17T21:59:45.997Z,13.90
2019-05-17T22:02:14.471Z,13.87
2019-05-17T22:04:42.862Z,14.60
2019-05-17T22:07:11.576Z,14.07
2019-05-17T22:09:39.951Z,14.40
2019-05-17T22:12:10.003Z,13.87
2019-05-17T22:14:38.396Z,14.70
2019-05-17T22:17:07.021Z,13.93
2019-05-17T22:19:35.730Z,13.83
2019-05-17T22:22:04.187Z,13.90
2019-05-17T22:24:32.606Z,13.50
2019-05-17T22:27:01.013Z,13.93
2019-05-17T22:29:29.668Z,13.87
2019-05-17T22:31:58.079Z,14.43
2019-05-17T22:34:26.478Z,14.30
2019-05-17T22:36:54.878Z,14.83
2019-05-17T22:39:23.614Z,14.00
2019-05-17T22:41:52.302Z,13.77
2019-05-17T22:44:20.961Z,13.00
2019-05-17T22:46:49.691Z,14.03
2019-05-17T22:49:18.091Z,12.40
2019-05-17T22:51:46.492Z,12.60
2019-05-17T22:54:15.161Z,13.20
2019-05-17T22:56:43.701Z,12.30
2019-05-17T22:59:12.141Z,12.50
2019-05-17T23:01:40.535Z,11.43
2019-05-17T23:04:09.186Z,13.20
2019-05-17T23:06:37.880Z,12.03
2019-05-17T23:09:06.921Z,13.70
2019-05-17T23:11:35.480Z,13.80
2019-05-17T23:14:04.768Z,13.80
2019-05-17T23:16:33.224Z,14.20
2019-05-17T23:19:08.772Z,13.40
2019-05-17T23:21:37.892Z,13.87
2019-05-17T23:24:06.642Z,14.30
2019-05-17T23:26:35.107Z,13.77
2019-05-17T23:29:03.591Z,14.63
2019-05-17T23:31:32.111Z,13.73
2019-05-17T23:34:00.955Z,13.00
2019-05-17T23:36:30.886Z,13.90
2019-05-17T23:38:59.281Z,14.50
2019-05-17T23:41:27.681Z,13.90
2019-05-17T23:43:56.075Z,13.93
2019-05-17T23:46:24.486Z,14.43
2019-05-17T23:48:53.177Z,15.47
2019-05-17T23:51:21.876Z,15.47
2019-05-17T23:53:50.560Z,14.80
2019-05-17T23:56:19.014Z,14.33
2019-05-17T23:58:47.453Z,14.43
